sensor_id;sensor_type;location;lat;lon;timestamp;P1;durP1;ratioP1;P2;durP2;ratioP2
14984;SDS011;7588;62.368;25.902;2022-11-10T00:00:07;20.87;;;5.13;;
14984;SDS011;7588;62.368;25.902;2022-11-10T00:02:33;23.40;;;4.80;;
14984;SDS011;7588;62.368;25.902;2022-11-10T00:04:59;19.90;;;5.67;;
14984;SDS011;7588;62.368;25.902;2022-11-10T00:07:26;17.23;;;4.93;;
14984;SDS011;7588;62.368;25.902;2022-11-10T00:09:53;20.57;;;4.90;;
14984;SDS011;7588;62.368;25.902;2022-11-10T00:12:19;18.57;;;4.53;;
14984;SDS011;7588;62.368;25.902;2022-11-10T00:14:46;22.87;;;4.97;;
14984;SDS011;7588;62.368;25.902;2022-11-10T00:17:31;20.90;;;5.07;;
14984;SDS011;7588;62.368;25.902;2022-11-10T00:19:59;28.03;;;5.03;;
14984;SDS011;7588;62.368;25.902;2022-11-10T00:22:25;18.67;;;4.27;;
14984;SDS011;7588;62.368;25.902;2022-11-10T00:24:51;19.33;;;5.33;;
14984;SDS011;7588;62.368;25.902;2022-11-10T00:27:16;16.93;;;4.10;;
14984;SDS011;7588;62.368;25.902;2022-11-10T00:29:42;21.60;;;4.80;;
14984;SDS011;7588;62.368;25.902;2022-11-10T00:32:08;19.40;;;4.50;;
14984;SDS011;7588;62.368;25.902;2022-11-10T00:34:34;15.50;;;4.43;;
14984;SDS011;7588;62.368;25.902;2022-11-10T00:37:00;15.10;;;4.37;;
14984;SDS011;7588;62.368;25.902;2022-11-10T00:39:27;13.40;;;3.70;;
14984;SDS011;7588;62.368;25.902;2022-11-10T00:41:52;15.50;;;3.70;;
14984;SDS011;7588;62.368;25.902;2022-11-10T00:44:18;13.57;;;4.10;;
14984;SDS011;7588;62.368;25.902;2022-11-10T00:46:44;9.87;;;3.87;;
14984;SDS011;7588;62.368;25.902;2022-11-10T00:49:10;17.57;;;4.87;;
14984;SDS011;7588;62.368;25.902;2022-11-10T00:51:36;14.97;;;3.77;;
14984;SDS011;7588;62.368;25.902;2022-11-10T00:54:02;11.03;;;4.03;;
14984;SDS011;7588;62.368;25.902;2022-11-10T00:56:27;18.10;;;4.60;;
14984;SDS011;7588;62.368;25.902;2022-11-10T00:58:53;13.87;;;4.33;;
14984;SDS011;7588;62.368;25.902;2022-11-10T01:01:20;14.87;;;4.30;;
14984;SDS011;7588;62.368;25.902;2022-11-10T01:03:50;18.50;;;4.30;;
14984;SDS011;7588;62.368;25.902;2022-11-10T01:06:17;19.30;;;5.13;;
14984;SDS011;7588;62.368;25.902;2022-11-10T01:08:44;17.33;;;5.40;;
14984;SDS011;7588;62.368;25.902;2022-11-10T01:11:18;13.73;;;4.70;;
14984;SDS011;7588;62.368;25.902;2022-11-10T01:13:46;16.83;;;5.23;;
14984;SDS011;7588;62.368;25.902;2022-11-10T01:16:14;16.33;;;4.80;;
14984;SDS011;7588;62.368;25.902;2022-11-10T01:18:43;14.23;;;4.57;;
14984;SDS011;7588;62.368;25.902;2022-11-10T01:21:13;16.27;;;4.53;;
14984;SDS011;7588;62.368;25.902;2022-11-10T01:23:38;17.00;;;4.53;;
14984;SDS011;7588;62.368;25.902;2022-11-10T01:26:05;10.73;;;4.97;;
14984;SDS011;7588;62.368;25.902;2022-11-10T01:28:32;12.13;;;5.20;;
14984;SDS011;7588;62.368;25.902;2022-11-10T01:31:00;16.13;;;4.93;;
14984;SDS011;7588;62.368;25.902;2022-11-10T01:33:28;10.70;;;5.10;;
14984;SDS011;7588;62.368;25.902;2022-11-10T01:35:54;10.13;;;4.87;;
14984;SDS011;7588;62.368;25.902;2022-11-10T01:38:20;13.67;;;5.20;;
14984;SDS011;7588;62.368;25.902;2022-11-10T01:40:47;12.23;;;4.83;;
14984;SDS011;7588;62.368;25.902;2022-11-10T01:43:14;12.97;;;5.40;;
14984;SDS011;7588;62.368;25.902;2022-11-10T01:45:44;16.10;;;6.10;;
14984;SDS011;7588;62.368;25.902;2022-11-10T01:48:14;16.30;;;5.60;;
14984;SDS011;7588;62.368;25.902;2022-11-10T01:51:47;16.27;;;6.60;;
14984;SDS011;7588;62.368;25.902;2022-11-10T01:54:00;18.23;;;6.47;;
14984;SDS011;7588;62.368;25.902;2022-11-10T01:56:32;16.67;;;5.83;;
14984;SDS011;7588;62.368;25.902;2022-11-10T01:59:05;15.77;;;5.53;;
14984;SDS011;7588;62.368;25.902;2022-11-10T02:01:39;13.40;;;6.17;;
14984;SDS011;7588;62.368;25.902;2022-11-10T02:04:06;14.57;;;6.33;;
14984;SDS011;7588;62.368;25.902;2022-11-10T02:06:38;14.20;;;6.50;;
14984;SDS011;7588;62.368;25.902;2022-11-10T02:09:06;14.87;;;7.10;;
14984;SDS011;7588;62.368;25.902;2022-11-10T02:11:32;17.13;;;7.67;;
14984;SDS011;7588;62.368;25.902;2022-11-10T02:14:00;17.27;;;7.83;;
14984;SDS011;7588;62.368;25.902;2022-11-10T02:16:26;17.63;;;8.43;;
14984;SDS011;7588;62.368;25.902;2022-11-10T02:18:52;15.30;;;6.80;;
14984;SDS011;7588;62.368;25.902;2022-11-10T02:21:19;19.53;;;7.87;;
14984;SDS011;7588;62.368;25.902;2022-11-10T02:23:46;15.87;;;6.87;;
14984;SDS011;7588;62.368;25.902;2022-11-10T02:26:12;18.17;;;7.67;;
14984;SDS011;7588;62.368;25.902;2022-11-10T02:28:40;17.23;;;8.07;;
14984;SDS011;7588;62.368;25.902;2022-11-10T02:31:05;20.77;;;8.07;;
14984;SDS011;7588;62.368;25.902;2022-11-10T02:33:33;21.83;;;8.80;;
14984;SDS011;7588;62.368;25.902;2022-11-10T02:35:59;22.13;;;9.43;;
14984;SDS011;7588;62.368;25.902;2022-11-10T02:38:25;26.83;;;10.10;;
14984;SDS011;7588;62.368;25.902;2022-11-10T02:40:51;23.87;;;10.07;;
14984;SDS011;7588;62.368;25.902;2022-11-10T02:43:17;31.07;;;10.60;;
14984;SDS011;7588;62.368;25.902;2022-11-10T02:45:44;22.37;;;9.20;;
14984;SDS011;7588;62.368;25.902;2022-11-10T02:48:11;19.23;;;11.47;;
14984;SDS011;7588;62.368;25.902;2022-11-10T02:50:38;28.43;;;10.30;;
14984;SDS011;7588;62.368;25.902;2022-11-10T02:53:04;24.67;;;10.87;;
14984;SDS011;7588;62.368;25.902;2022-11-10T02:55:30;23.03;;;12.80;;
14984;SDS011;7588;62.368;25.902;2022-11-10T02:57:56;21.20;;;12.03;;
14984;SDS011;7588;62.368;25.902;2022-11-10T03:00:22;18.93;;;12.10;;
14984;SDS011;7588;62.368;25.902;2022-11-10T03:02:48;27.37;;;14.43;;
14984;SDS011;7588;62.368;25.902;2022-11-10T03:05:19;30.87;;;13.10;;
14984;SDS011;7588;62.368;25.902;2022-11-10T03:07:44;29.83;;;13.50;;
14984;SDS011;7588;62.368;25.902;2022-11-10T03:10:16;26.70;;;12.27;;
14984;SDS011;7588;62.368;25.902;2022-11-10T03:12:41;30.07;;;13.60;;
14984;SDS011;7588;62.368;25.902;2022-11-10T03:15:07;24.63;;;11.80;;
14984;SDS011;7588;62.368;25.902;2022-11-10T03:17:33;37.33;;;14.53;;
14984;SDS011;7588;62.368;25.902;2022-11-10T03:19:59;27.17;;;13.60;;
14984;SDS011;7588;62.368;25.902;2022-11-10T03:22:25;30.17;;;14.13;;
14984;SDS011;7588;62.368;25.902;2022-11-10T03:24:50;39.37;;;13.13;;
14984;SDS011;7588;62.368;25.902;2022-11-10T03:27:16;25.40;;;13.33;;
14984;SDS011;7588;62.368;25.902;2022-11-10T03:29:42;34.43;;;15.70;;
14984;SDS011;7588;62.368;25.902;2022-11-10T03:32:07;25.30;;;13.63;;
14984;SDS011;7588;62.368;25.902;2022-11-10T03:34:33;21.73;;;13.43;;
14984;SDS011;7588;62.368;25.902;2022-11-10T03:36:59;18.83;;;12.00;;
14984;SDS011;7588;62.368;25.902;2022-11-10T03:39:24;47.20;;;13.80;;
14984;SDS011;7588;62.368;25.902;2022-11-10T03:41:50;22.07;;;11.97;;
14984;SDS011;7588;62.368;25.902;2022-11-10T03:44:16;28.03;;;12.20;;
14984;SDS011;7588;62.368;25.902;2022-11-10T03:46:41;19.73;;;12.67;;
14984;SDS011;7588;62.368;25.902;2022-11-10T03:49:07;24.77;;;13.73;;
14984;SDS011;7588;62.368;25.902;2022-11-10T03:51:33;27.57;;;14.57;;
14984;SDS011;7588;62.368;25.902;2022-11-10T03:53:58;31.77;;;14.23;;
14984;SDS011;7588;62.368;25.902;2022-11-10T03:56:24;42.30;;;15.53;;
14984;SDS011;7588;62.368;25.902;2022-11-10T03:58:50;30.83;;;13.20;;
14984;SDS011;7588;62.368;25.902;2022-11-10T04:01:16;26.40;;;13.57;;
14984;SDS011;7588;62.368;25.902;2022-11-10T04:03:41;24.87;;;14.50;;
14984;SDS011;7588;62.368;25.902;2022-11-10T04:06:08;19.93;;;13.37;;
14984;SDS011;7588;62.368;25.902;2022-11-10T04:08:53;21.40;;;13.40;;
14984;SDS011;7588;62.368;25.902;2022-11-10T04:11:25;21.10;;;13.03;;
14984;SDS011;7588;62.368;25.902;2022-11-10T04:14:10;23.27;;;14.07;;
14984;SDS011;7588;62.368;25.902;2022-11-10T04:16:55;28.63;;;15.57;;
14984;SDS011;7588;62.368;25.902;2022-11-10T04:19:21;24.63;;;14.77;;
14984;SDS011;7588;62.368;25.902;2022-11-10T04:21:47;23.47;;;14.37;;
14984;SDS011;7588;62.368;25.902;2022-11-10T04:24:13;25.70;;;15.00;;
14984;SDS011;7588;62.368;25.902;2022-11-10T04:26:39;19.40;;;13.53;;
14984;SDS011;7588;62.368;25.902;2022-11-10T04:29:07;23.17;;;13.83;;
14984;SDS011;7588;62.368;25.902;2022-11-10T04:31:35;28.13;;;15.53;;
14984;SDS011;7588;62.368;25.902;2022-11-10T04:34:05;22.07;;;13.77;;
14984;SDS011;7588;62.368;25.902;2022-11-10T04:36:34;20.17;;;13.67;;
14984;SDS011;7588;62.368;25.902;2022-11-10T04:39:01;20.63;;;13.63;;
14984;SDS011;7588;62.368;25.902;2022-11-10T04:41:29;28.03;;;15.43;;
14984;SDS011;7588;62.368;25.902;2022-11-10T04:43:55;18.83;;;13.60;;
14984;SDS011;7588;62.368;25.902;2022-11-10T04:48:52;24.43;;;13.03;;
14984;SDS011;7588;62.368;25.902;2022-11-10T04:51:19;21.87;;;12.87;;
14984;SDS011;7588;62.368;25.902;2022-11-10T04:53:46;19.73;;;13.03;;
14984;SDS011;7588;62.368;25.902;2022-11-10T04:56:13;19.43;;;13.00;;
14984;SDS011;7588;62.368;25.902;2022-11-10T04:58:40;16.00;;;11.63;;
14984;SDS011;7588;62.368;25.902;2022-11-10T05:01:06;17.37;;;12.13;;
14984;SDS011;7588;62.368;25.902;2022-11-10T05:03:34;19.83;;;12.53;;
14984;SDS011;7588;62.368;25.902;2022-11-10T05:05:59;21.27;;;12.83;;
14984;SDS011;7588;62.368;25.902;2022-11-10T05:08:25;19.67;;;12.17;;
14984;SDS011;7588;62.368;25.902;2022-11-10T05:10:51;18.00;;;11.27;;
14984;SDS011;7588;62.368;25.902;2022-11-10T05:13:17;21.93;;;12.50;;
14984;SDS011;7588;62.368;25.902;2022-11-10T05:15:42;19.90;;;12.57;;
14984;SDS011;7588;62.368;25.902;2022-11-10T05:18:09;18.00;;;11.63;;
14984;SDS011;7588;62.368;25.902;2022-11-10T05:20:35;14.27;;;10.43;;
14984;SDS011;7588;62.368;25.902;2022-11-10T05:23:00;15.13;;;11.13;;
14984;SDS011;7588;62.368;25.902;2022-11-10T05:25:45;16.63;;;10.50;;
14984;SDS011;7588;62.368;25.902;2022-11-10T05:28:11;13.60;;;10.93;;
14984;SDS011;7588;62.368;25.902;2022-11-10T05:30:38;12.97;;;10.87;;
14984;SDS011;7588;62.368;25.902;2022-11-10T05:33:04;19.47;;;11.20;;
14984;SDS011;7588;62.368;25.902;2022-11-10T05:35:31;17.50;;;10.43;;
14984;SDS011;7588;62.368;25.902;2022-11-10T05:37:57;17.80;;;11.57;;
14984;SDS011;7588;62.368;25.902;2022-11-10T05:40:23;17.97;;;11.17;;
14984;SDS011;7588;62.368;25.902;2022-11-10T05:42:49;12.83;;;10.17;;
14984;SDS011;7588;62.368;25.902;2022-11-10T05:45:22;20.40;;;11.67;;
14984;SDS011;7588;62.368;25.902;2022-11-10T05:47:49;17.57;;;10.90;;
14984;SDS011;7588;62.368;25.902;2022-11-10T05:50:16;14.00;;;9.83;;
14984;SDS011;7588;62.368;25.902;2022-11-10T05:52:44;13.83;;;9.97;;
14984;SDS011;7588;62.368;25.902;2022-11-10T05:55:12;18.13;;;9.77;;
14984;SDS011;7588;62.368;25.902;2022-11-10T05:57:41;11.73;;;9.33;;
14984;SDS011;7588;62.368;25.902;2022-11-10T06:00:08;12.63;;;9.60;;
14984;SDS011;7588;62.368;25.902;2022-11-10T06:02:34;13.10;;;9.43;;
14984;SDS011;7588;62.368;25.902;2022-11-10T06:05:00;13.70;;;9.00;;
14984;SDS011;7588;62.368;25.902;2022-11-10T06:07:26;12.07;;;9.00;;
14984;SDS011;7588;62.368;25.902;2022-11-10T06:09:52;10.33;;;8.67;;
14984;SDS011;7588;62.368;25.902;2022-11-10T06:12:17;13.67;;;8.87;;
14984;SDS011;7588;62.368;25.902;2022-11-10T06:14:43;16.07;;;9.10;;
14984;SDS011;7588;62.368;25.902;2022-11-10T06:17:09;13.03;;;8.13;;
14984;SDS011;7588;62.368;25.902;2022-11-10T06:19:35;13.43;;;7.97;;
14984;SDS011;7588;62.368;25.902;2022-11-10T06:22:00;10.47;;;7.87;;
14984;SDS011;7588;62.368;25.902;2022-11-10T06:24:26;10.77;;;8.20;;
14984;SDS011;7588;62.368;25.902;2022-11-10T06:26:52;14.03;;;8.90;;
14984;SDS011;7588;62.368;25.902;2022-11-10T06:29:17;16.23;;;8.77;;
14984;SDS011;7588;62.368;25.902;2022-11-10T06:31:43;10.17;;;7.90;;
14984;SDS011;7588;62.368;25.902;2022-11-10T06:34:09;13.33;;;8.17;;
14984;SDS011;7588;62.368;25.902;2022-11-10T06:36:34;13.23;;;9.53;;
14984;SDS011;7588;62.368;25.902;2022-11-10T06:39:00;11.40;;;8.90;;
14984;SDS011;7588;62.368;25.902;2022-11-10T06:41:26;9.93;;;8.37;;
14984;SDS011;7588;62.368;25.902;2022-11-10T06:43:52;14.30;;;9.77;;
14984;SDS011;7588;62.368;25.902;2022-11-10T06:46:17;13.00;;;7.97;;
14984;SDS011;7588;62.368;25.902;2022-11-10T06:48:43;11.77;;;7.80;;
14984;SDS011;7588;62.368;25.902;2022-11-10T06:51:09;11.67;;;8.00;;
14984;SDS011;7588;62.368;25.902;2022-11-10T06:53:34;11.47;;;8.60;;
14984;SDS011;7588;62.368;25.902;2022-11-10T06:56:00;11.77;;;8.40;;
14984;SDS011;7588;62.368;25.902;2022-11-10T06:58:26;10.00;;;7.83;;
14984;SDS011;7588;62.368;25.902;2022-11-10T07:00:52;10.43;;;7.10;;
14984;SDS011;7588;62.368;25.902;2022-11-10T07:03:17;14.03;;;7.60;;
14984;SDS011;7588;62.368;25.902;2022-11-10T07:05:43;11.07;;;7.90;;
14984;SDS011;7588;62.368;25.902;2022-11-10T07:08:12;12.37;;;8.47;;
14984;SDS011;7588;62.368;25.902;2022-11-10T07:10:43;11.20;;;7.90;;
14984;SDS011;7588;62.368;25.902;2022-11-10T07:13:09;8.93;;;7.33;;
14984;SDS011;7588;62.368;25.902;2022-11-10T07:15:36;10.53;;;8.33;;
14984;SDS011;7588;62.368;25.902;2022-11-10T07:18:02;16.80;;;9.00;;
14984;SDS011;7588;62.368;25.902;2022-11-10T07:20:29;11.80;;;7.90;;
14984;SDS011;7588;62.368;25.902;2022-11-10T07:22:59;9.90;;;7.47;;
14984;SDS011;7588;62.368;25.902;2022-11-10T07:25:26;11.10;;;8.20;;
14984;SDS011;7588;62.368;25.902;2022-11-10T07:27:54;12.93;;;7.97;;
14984;SDS011;7588;62.368;25.902;2022-11-10T07:30:21;10.97;;;6.63;;
14984;SDS011;7588;62.368;25.902;2022-11-10T07:32:56;13.90;;;7.23;;
14984;SDS011;7588;62.368;25.902;2022-11-10T07:35:33;11.90;;;7.60;;
14984;SDS011;7588;62.368;25.902;2022-11-10T07:38:04;11.97;;;7.67;;
14984;SDS011;7588;62.368;25.902;2022-11-10T07:40:31;10.97;;;7.27;;
14984;SDS011;7588;62.368;25.902;2022-11-10T07:42:58;12.87;;;7.73;;
14984;SDS011;7588;62.368;25.902;2022-11-10T07:45:24;10.40;;;7.30;;
14984;SDS011;7588;62.368;25.902;2022-11-10T07:47:50;9.77;;;7.50;;
14984;SDS011;7588;62.368;25.902;2022-11-10T07:50:16;10.30;;;7.30;;
14984;SDS011;7588;62.368;25.902;2022-11-10T07:52:42;11.87;;;7.93;;
14984;SDS011;7588;62.368;25.902;2022-11-10T07:55:08;10.83;;;7.80;;
14984;SDS011;7588;62.368;25.902;2022-11-10T07:57:34;8.37;;;7.07;;
14984;SDS011;7588;62.368;25.902;2022-11-10T08:00:00;10.73;;;7.30;;
14984;SDS011;7588;62.368;25.902;2022-11-10T08:02:26;9.33;;;6.70;;
14984;SDS011;7588;62.368;25.902;2022-11-10T08:04:52;9.90;;;7.10;;
14984;SDS011;7588;62.368;25.902;2022-11-10T08:07:17;8.37;;;7.57;;
14984;SDS011;7588;62.368;25.902;2022-11-10T08:09:43;8.27;;;7.27;;
14984;SDS011;7588;62.368;25.902;2022-11-10T08:12:09;10.27;;;6.80;;
14984;SDS011;7588;62.368;25.902;2022-11-10T08:14:35;9.00;;;7.23;;
14984;SDS011;7588;62.368;25.902;2022-11-10T08:17:01;10.03;;;7.37;;
14984;SDS011;7588;62.368;25.902;2022-11-10T08:19:27;7.93;;;6.63;;
14984;SDS011;7588;62.368;25.902;2022-11-10T08:21:52;11.20;;;7.20;;
14984;SDS011;7588;62.368;25.902;2022-11-10T08:24:18;8.60;;;7.30;;
14984;SDS011;7588;62.368;25.902;2022-11-10T08:26:44;9.10;;;7.53;;
14984;SDS011;7588;62.368;25.902;2022-11-10T08:29:09;10.03;;;7.33;;
14984;SDS011;7588;62.368;25.902;2022-11-10T08:31:35;8.40;;;6.67;;
14984;SDS011;7588;62.368;25.902;2022-11-10T08:34:02;9.33;;;6.87;;
14984;SDS011;7588;62.368;25.902;2022-11-10T08:36:28;8.53;;;7.43;;
14984;SDS011;7588;62.368;25.902;2022-11-10T08:38:54;8.30;;;7.27;;
14984;SDS011;7588;62.368;25.902;2022-11-10T08:41:20;9.97;;;7.07;;
14984;SDS011;7588;62.368;25.902;2022-11-10T08:43:46;8.50;;;6.43;;
14984;SDS011;7588;62.368;25.902;2022-11-10T08:46:11;10.43;;;6.30;;
14984;SDS011;7588;62.368;25.902;2022-11-10T08:48:37;6.90;;;5.70;;
14984;SDS011;7588;62.368;25.902;2022-11-10T08:51:03;6.33;;;5.73;;
14984;SDS011;7588;62.368;25.902;2022-11-10T08:53:29;8.20;;;5.90;;
14984;SDS011;7588;62.368;25.902;2022-11-10T08:55:58;10.60;;;6.17;;
14984;SDS011;7588;62.368;25.902;2022-11-10T08:58:24;8.27;;;6.73;;
14984;SDS011;7588;62.368;25.902;2022-11-10T09:00:50;10.93;;;6.60;;
14984;SDS011;7588;62.368;25.902;2022-11-10T09:03:17;8.93;;;6.17;;
14984;SDS011;7588;62.368;25.902;2022-11-10T09:05:45;6.73;;;5.97;;
14984;SDS011;7588;62.368;25.902;2022-11-10T09:08:12;8.87;;;6.10;;
14984;SDS011;7588;62.368;25.902;2022-11-10T09:10:39;5.97;;;4.60;;
14984;SDS011;7588;62.368;25.902;2022-11-10T09:13:06;7.00;;;5.00;;
14984;SDS011;7588;62.368;25.902;2022-11-10T09:15:32;6.60;;;4.40;;
14984;SDS011;7588;62.368;25.902;2022-11-10T09:17:59;7.10;;;4.80;;
14984;SDS011;7588;62.368;25.902;2022-11-10T09:20:26;6.50;;;5.07;;
14984;SDS011;7588;62.368;25.902;2022-11-10T09:22:53;6.63;;;4.50;;
14984;SDS011;7588;62.368;25.902;2022-11-10T09:25:19;6.40;;;4.47;;
14984;SDS011;7588;62.368;25.902;2022-11-10T09:27:45;6.63;;;4.93;;
14984;SDS011;7588;62.368;25.902;2022-11-10T09:30:11;6.00;;;4.97;;
14984;SDS011;7588;62.368;25.902;2022-11-10T09:32:37;5.67;;;4.47;;
14984;SDS011;7588;62.368;25.902;2022-11-10T09:35:03;6.30;;;4.03;;
14984;SDS011;7588;62.368;25.902;2022-11-10T09:37:29;6.70;;;3.77;;
14984;SDS011;7588;62.368;25.902;2022-11-10T09:39:55;8.07;;;4.40;;
14984;SDS011;7588;62.368;25.902;2022-11-10T09:50:09;8.30;;;4.60;;
14984;SDS011;7588;62.368;25.902;2022-11-10T09:52:42;5.63;;;3.90;;
14984;SDS011;7588;62.368;25.902;2022-11-10T09:58:01;4.97;;;3.57;;
14984;SDS011;7588;62.368;25.902;2022-11-10T10:00:28;6.10;;;3.87;;
14984;SDS011;7588;62.368;25.902;2022-11-10T10:03:03;5.73;;;3.53;;
14984;SDS011;7588;62.368;25.902;2022-11-10T10:10:51;7.53;;;4.10;;
14984;SDS011;7588;62.368;25.902;2022-11-10T10:18:58;7.67;;;3.63;;
14984;SDS011;7588;62.368;25.902;2022-11-10T10:23:59;7.30;;;4.03;;
14984;SDS011;7588;62.368;25.902;2022-11-10T10:26:30;3.30;;;2.93;;
14984;SDS011;7588;62.368;25.902;2022-11-10T10:29:09;8.87;;;3.90;;
14984;SDS011;7588;62.368;25.902;2022-11-10T10:31:44;6.57;;;3.70;;
14984;SDS011;7588;62.368;25.902;2022-11-10T10:34:14;7.23;;;3.40;;
14984;SDS011;7588;62.368;25.902;2022-11-10T10:36:42;5.53;;;4.00;;
14984;SDS011;7588;62.368;25.902;2022-11-10T10:39:28;7.43;;;3.97;;
14984;SDS011;7588;62.368;25.902;2022-11-10T10:42:02;6.50;;;3.50;;
14984;SDS011;7588;62.368;25.902;2022-11-10T10:44:38;5.70;;;3.70;;
14984;SDS011;7588;62.368;25.902;2022-11-10T10:47:04;6.17;;;4.07;;
14984;SDS011;7588;62.368;25.902;2022-11-10T10:49:30;6.40;;;4.13;;
14984;SDS011;7588;62.368;25.902;2022-11-10T10:52:04;6.40;;;3.37;;
14984;SDS011;7588;62.368;25.902;2022-11-10T10:54:34;4.43;;;3.47;;
14984;SDS011;7588;62.368;25.902;2022-11-10T10:57:16;7.90;;;4.03;;
14984;SDS011;7588;62.368;25.902;2022-11-10T10:59:53;6.67;;;3.97;;
14984;SDS011;7588;62.368;25.902;2022-11-10T11:02:59;6.53;;;3.40;;
14984;SDS011;7588;62.368;25.902;2022-11-10T11:05:30;7.43;;;3.73;;
14984;SDS011;7588;62.368;25.902;2022-11-10T11:07:56;11.30;;;4.00;;
14984;SDS011;7588;62.368;25.902;2022-11-10T11:13:13;6.90;;;3.97;;
14984;SDS011;7588;62.368;25.902;2022-11-10T11:15:39;8.07;;;4.03;;
14984;SDS011;7588;62.368;25.902;2022-11-10T11:18:14;8.50;;;4.50;;
14984;SDS011;7588;62.368;25.902;2022-11-10T11:26:11;9.83;;;4.27;;
14984;SDS011;7588;62.368;25.902;2022-11-10T11:29:13;9.67;;;4.17;;
14984;SDS011;7588;62.368;25.902;2022-11-10T11:31:48;8.33;;;4.77;;
14984;SDS011;7588;62.368;25.902;2022-11-10T11:45:47;7.90;;;4.20;;
14984;SDS011;7588;62.368;25.902;2022-11-10T11:51:33;10.20;;;4.70;;
14984;SDS011;7588;62.368;25.902;2022-11-10T11:56:47;9.23;;;4.07;;
14984;SDS011;7588;62.368;25.902;2022-11-10T12:02:14;9.63;;;3.60;;
14984;SDS011;7588;62.368;25.902;2022-11-10T12:18:29;12.60;;;3.77;;
14984;SDS011;7588;62.368;25.902;2022-11-10T12:24:17;4.87;;;3.13;;
14984;SDS011;7588;62.368;25.902;2022-11-10T12:31:47;5.03;;;2.93;;
14984;SDS011;7588;62.368;25.902;2022-11-10T12:34:39;6.57;;;3.53;;
14984;SDS011;7588;62.368;25.902;2022-11-10T12:37:13;6.60;;;3.00;;
14984;SDS011;7588;62.368;25.902;2022-11-10T12:42:49;7.20;;;3.27;;
14984;SDS011;7588;62.368;25.902;2022-11-10T12:45:37;9.13;;;3.40;;
14984;SDS011;7588;62.368;25.902;2022-11-10T12:48:08;8.30;;;3.10;;
14984;SDS011;7588;62.368;25.902;2022-11-10T12:53:31;4.93;;;2.90;;
14984;SDS011;7588;62.368;25.902;2022-11-10T12:56:06;5.70;;;3.20;;
14984;SDS011;7588;62.368;25.902;2022-11-10T12:58:39;7.80;;;2.90;;
14984;SDS011;7588;62.368;25.902;2022-11-10T13:01:11;5.43;;;3.30;;
14984;SDS011;7588;62.368;25.902;2022-11-10T13:03:50;5.47;;;2.87;;
14984;SDS011;7588;62.368;25.902;2022-11-10T13:06:22;7.77;;;2.80;;
14984;SDS011;7588;62.368;25.902;2022-11-10T13:08:56;5.77;;;3.10;;
14984;SDS011;7588;62.368;25.902;2022-11-10T13:11:32;5.07;;;3.10;;
14984;SDS011;7588;62.368;25.902;2022-11-10T13:14:01;6.47;;;3.10;;
14984;SDS011;7588;62.368;25.902;2022-11-10T13:34:36;6.67;;;3.17;;
14984;SDS011;7588;62.368;25.902;2022-11-10T13:37:41;5.37;;;3.27;;
14984;SDS011;7588;62.368;25.902;2022-11-10T13:42:44;5.47;;;2.90;;
14984;SDS011;7588;62.368;25.902;2022-11-10T13:45:43;5.30;;;3.00;;
14984;SDS011;7588;62.368;25.902;2022-11-10T13:53:31;6.57;;;3.07;;
14984;SDS011;7588;62.368;25.902;2022-11-10T13:58:41;5.93;;;3.17;;
14984;SDS011;7588;62.368;25.902;2022-11-10T14:06:21;8.27;;;3.63;;
14984;SDS011;7588;62.368;25.902;2022-11-10T14:08:55;9.03;;;3.37;;
14984;SDS011;7588;62.368;25.902;2022-11-10T14:11:48;7.10;;;3.20;;
14984;SDS011;7588;62.368;25.902;2022-11-10T14:14:20;8.07;;;3.43;;
14984;SDS011;7588;62.368;25.902;2022-11-10T14:16:49;8.23;;;3.67;;
14984;SDS011;7588;62.368;25.902;2022-11-10T14:22:00;9.30;;;3.37;;
14984;SDS011;7588;62.368;25.902;2022-11-10T14:24:36;3.60;;;2.73;;
14984;SDS011;7588;62.368;25.902;2022-11-10T14:27:13;8.43;;;3.77;;
14984;SDS011;7588;62.368;25.902;2022-11-10T14:29:45;6.33;;;3.20;;
14984;SDS011;7588;62.368;25.902;2022-11-10T14:32:20;8.03;;;3.67;;
14984;SDS011;7588;62.368;25.902;2022-11-10T14:34:49;5.53;;;3.30;;
14984;SDS011;7588;62.368;25.902;2022-11-10T14:37:21;4.97;;;2.93;;
14984;SDS011;7588;62.368;25.902;2022-11-10T14:39:53;8.23;;;3.80;;
14984;SDS011;7588;62.368;25.902;2022-11-10T14:42:25;5.40;;;3.10;;
14984;SDS011;7588;62.368;25.902;2022-11-10T14:45:07;5.40;;;3.40;;
14984;SDS011;7588;62.368;25.902;2022-11-10T14:47:55;6.97;;;3.63;;
14984;SDS011;7588;62.368;25.902;2022-11-10T14:52:57;9.10;;;3.70;;
14984;SDS011;7588;62.368;25.902;2022-11-10T14:55:42;4.73;;;3.63;;
14984;SDS011;7588;62.368;25.902;2022-11-10T14:58:15;5.57;;;4.10;;
14984;SDS011;7588;62.368;25.902;2022-11-10T15:00:47;7.27;;;4.17;;
14984;SDS011;7588;62.368;25.902;2022-11-10T15:03:32;6.83;;;3.93;;
14984;SDS011;7588;62.368;25.902;2022-11-10T15:06:01;9.63;;;3.57;;
14984;SDS011;7588;62.368;25.902;2022-11-10T15:08:29;7.17;;;3.23;;
14984;SDS011;7588;62.368;25.902;2022-11-10T15:10:56;5.10;;;3.73;;
14984;SDS011;7588;62.368;25.902;2022-11-10T15:18:50;8.43;;;3.67;;
14984;SDS011;7588;62.368;25.902;2022-11-10T15:21:18;10.70;;;3.80;;
14984;SDS011;7588;62.368;25.902;2022-11-10T15:23:46;7.80;;;4.17;;
14984;SDS011;7588;62.368;25.902;2022-11-10T15:26:24;6.87;;;3.67;;
14984;SDS011;7588;62.368;25.902;2022-11-10T15:28:51;5.43;;;3.57;;
14984;SDS011;7588;62.368;25.902;2022-11-10T15:31:21;6.50;;;4.03;;
14984;SDS011;7588;62.368;25.902;2022-11-10T15:33:50;9.40;;;3.77;;
14984;SDS011;7588;62.368;25.902;2022-11-10T15:38:43;5.70;;;3.50;;
14984;SDS011;7588;62.368;25.902;2022-11-10T15:41:25;9.03;;;3.80;;
14984;SDS011;7588;62.368;25.902;2022-11-10T15:43:56;7.60;;;3.50;;
14984;SDS011;7588;62.368;25.902;2022-11-10T15:46:34;8.37;;;3.63;;
14984;SDS011;7588;62.368;25.902;2022-11-10T15:49:00;6.10;;;3.30;;
14984;SDS011;7588;62.368;25.902;2022-11-10T15:51:27;6.23;;;3.47;;
14984;SDS011;7588;62.368;25.902;2022-11-10T15:53:53;9.50;;;3.87;;
14984;SDS011;7588;62.368;25.902;2022-11-10T15:56:20;5.83;;;3.33;;
14984;SDS011;7588;62.368;25.902;2022-11-10T15:58:48;3.53;;;3.20;;
14984;SDS011;7588;62.368;25.902;2022-11-10T16:01:16;4.70;;;3.27;;
14984;SDS011;7588;62.368;25.902;2022-11-10T16:03:42;6.20;;;3.27;;
14984;SDS011;7588;62.368;25.902;2022-11-10T16:06:12;6.27;;;3.40;;
14984;SDS011;7588;62.368;25.902;2022-11-10T16:08:39;3.77;;;3.17;;
14984;SDS011;7588;62.368;25.902;2022-11-10T16:11:11;8.43;;;3.60;;
14984;SDS011;7588;62.368;25.902;2022-11-10T16:13:41;9.37;;;3.40;;
14984;SDS011;7588;62.368;25.902;2022-11-10T16:16:08;6.87;;;3.13;;
14984;SDS011;7588;62.368;25.902;2022-11-10T16:18:36;4.97;;;3.60;;
14984;SDS011;7588;62.368;25.902;2022-11-10T16:21:02;9.90;;;3.70;;
14984;SDS011;7588;62.368;25.902;2022-11-10T16:23:28;4.13;;;3.17;;
14984;SDS011;7588;62.368;25.902;2022-11-10T16:25:54;6.47;;;3.53;;
14984;SDS011;7588;62.368;25.902;2022-11-10T16:28:22;4.77;;;3.07;;
14984;SDS011;7588;62.368;25.902;2022-11-10T16:30:50;5.53;;;3.93;;
14984;SDS011;7588;62.368;25.902;2022-11-10T16:33:21;6.20;;;3.40;;
14984;SDS011;7588;62.368;25.902;2022-11-10T16:35:49;6.13;;;4.10;;
14984;SDS011;7588;62.368;25.902;2022-11-10T16:38:24;7.63;;;3.50;;
14984;SDS011;7588;62.368;25.902;2022-11-10T16:40:55;7.73;;;3.13;;
14984;SDS011;7588;62.368;25.902;2022-11-10T16:43:22;7.70;;;3.40;;
14984;SDS011;7588;62.368;25.902;2022-11-10T16:45:50;7.33;;;3.33;;
14984;SDS011;7588;62.368;25.902;2022-11-10T16:48:22;7.80;;;3.60;;
14984;SDS011;7588;62.368;25.902;2022-11-10T16:50:52;7.17;;;3.40;;
14984;SDS011;7588;62.368;25.902;2022-11-10T16:53:21;4.40;;;3.17;;
14984;SDS011;7588;62.368;25.902;2022-11-10T16:55:48;6.53;;;3.17;;
14984;SDS011;7588;62.368;25.902;2022-11-10T16:58:14;7.53;;;2.83;;